Time;durP1;ratioP1;P1;durP2;ratioP2;P2;SDS_P1;SDS_P2;PMS_P1;PMS_P2;Temp;Humidity;BMP_temperature;BMP_pressure;BME280_temperature;BME280_humidity;BME280_pressure;Samples;Min_cycle;Max_cycle;Signal;HPM_P1;HPM_P2
2021/09/13 00:00:05;;;;;;;29.37;12.75;;;;;;;10.93;84.32;94629.16;1685307;83;21681;-59
2021/09/13 00:02:34;;;;;;;25.50;14.07;;;;;;;10.89;84.12;94630.69;1705746;83;21051;-59
2021/09/13 00:05:06;;;;;;;26.23;13.90;;;;;;;10.81;83.97;94633.55;1696995;83;21045;-60
2021/09/13 00:07:35;;;;;;;24.75;13.05;;;;;;;10.74;84.19;94633.82;1691022;82;21511;-60
2021/09/13 00:10:03;;;;;;;27.40;13.43;;;;;;;10.68;84.23;94625.22;1688446;83;21463;-60
2021/09/13 00:12:31;;;;;;;34.55;12.68;;;;;;;10.67;84.40;94633.91;1683925;84;21119;-60
2021/09/13 00:14:59;;;;;;;32.28;14.40;;;;;;;10.64;84.65;94635.59;1698888;83;21555;-59
2021/09/13 00:17:27;;;;;;;22.85;12.05;;;;;;;10.63;84.76;94631.91;1687934;83;20979;-60
2021/09/13 00:19:56;;;;;;;22.10;12.55;;;;;;;10.58;84.70;94622.28;1704271;83;21120;-62
2021/09/13 00:22:25;;;;;;;21.62;12.65;;;;;;;10.54;84.77;94633.24;1696671;83;21645;-59
2021/09/13 00:24:55;;;;;;;26.77;11.88;;;;;;;10.50;84.56;94633.98;1687070;83;21465;-59
2021/09/13 00:27:23;;;;;;;17.27;11.12;;;;;;;10.47;84.73;94633.48;1700047;83;21122;-60
2021/09/13 00:29:51;;;;;;;25.32;12.28;;;;;;;10.43;84.69;94636.98;1673299;83;21025;-60
2021/09/13 00:32:19;;;;;;;34.30;15.75;;;;;;;10.41;84.72;94632.54;1669225;85;21520;-60
2021/09/13 00:34:48;;;;;;;28.35;15.68;;;;;;;10.41;84.53;94632.54;1677180;83;21501;-60
2021/09/13 00:37:17;;;;;;;25.55;13.72;;;;;;;10.38;84.33;94632.06;1683142;83;20994;-59
2021/09/13 00:39:44;;;;;;;30.20;12.53;;;;;;;10.35;84.35;94629.59;1684547;83;21062;-60
2021/09/13 00:42:12;;;;;;;27.35;13.45;;;;;;;10.37;84.62;94632.66;1676475;83;21052;-60
2021/09/13 00:44:41;;;;;;;26.75;12.18;;;;;;;10.40;84.62;94632.38;1693520;83;21484;-59
2021/09/13 00:47:08;;;;;;;20.45;12.58;;;;;;;10.37;84.62;94632.66;1675992;83;21086;-59
2021/09/13 00:49:35;;;;;;;23.32;13.28;;;;;;;10.34;84.64;94632.81;1696418;83;21153;-60
2021/09/13 00:52:02;;;;;;;17.98;12.00;;;;;;;10.31;84.45;94633.09;1694726;83;21512;-60
2021/09/13 00:54:30;;;;;;;25.02;11.40;;;;;;;10.29;84.58;94626.48;1676749;83;21072;-60
2021/09/13 00:56:56;;;;;;;27.93;12.13;;;;;;;10.29;84.69;94631.98;1685192;83;21592;-60
2021/09/13 00:59:23;;;;;;;24.63;11.85;;;;;;;10.29;84.82;94629.23;1692065;83;20953;-60
2021/09/13 01:01:52;;;;;;;19.52;12.18;;;;;;;10.27;84.79;94629.70;1687861;83;21074;-60
2021/09/13 01:04:19;;;;;;;25.50;12.37;;;;;;;10.25;84.79;94625.27;1683460;83;21529;-60
2021/09/13 01:06:47;;;;;;;17.87;11.53;;;;;;;10.26;84.74;94630.14;1703591;82;21063;-60
2021/09/13 01:09:15;;;;;;;19.42;11.05;;;;;;;10.27;84.63;94630.30;1694914;83;21611;-59
2021/09/13 01:11:43;;;;;;;19.50;12.15;;;;;;;10.31;84.60;94636.45;1678706;83;21101;-60
2021/09/13 01:14:14;;;;;;;25.90;12.20;;;;;;;10.30;84.44;94635.67;1704156;83;20942;-61
2021/09/13 01:16:41;;;;;;;22.40;12.33;;;;;;;10.26;84.42;94639.76;1676874;83;20990;-60
2021/09/13 01:19:08;;;;;;;19.23;11.85;;;;;;;10.22;84.38;94638.53;1694386;83;21029;-60
2021/09/13 01:21:36;;;;;;;36.28;12.60;;;;;;;10.19;84.23;94639.40;1686455;83;21032;-60
2021/09/13 01:24:04;;;;;;;17.62;10.95;;;;;;;10.18;84.16;94632.99;1703716;84;21040;-59
2021/09/13 01:26:31;;;;;;;20.40;12.47;;;;;;;10.20;83.93;94637.44;1702751;83;21547;-59
2021/09/13 01:28:58;;;;;;;24.90;11.33;;;;;;;10.19;83.59;94642.77;1698485;83;21106;-59
2021/09/13 01:31:29;;;;;;;21.87;11.45;;;;;;;10.20;83.75;94641.56;1692729;83;21036;-60
2021/09/13 01:33:56;;;;;;;15.32;10.28;;;;;;;10.18;83.66;94649.48;1693644;83;21000;-61
2021/09/13 01:36:24;;;;;;;18.35;11.35;;;;;;;10.07;83.77;94647.70;1699884;83;20990;-60
2021/09/13 01:38:51;;;;;;;18.67;12.65;;;;;;;9.95;83.75;94649.27;1695784;83;21082;-60
2021/09/13 01:41:18;;;;;;;20.23;11.63;;;;;;;9.85;84.10;94642.77;1697927;83;21048;-59
2021/09/13 01:43:44;;;;;;;21.35;13.28;;;;;;;9.79;84.29;94647.30;1691131;83;21045;-60
2021/09/13 01:46:11;;;;;;;26.73;13.40;;;;;;;9.77;84.65;94646.98;1696075;83;21055;-59
2021/09/13 01:48:39;;;;;;;25.45;12.15;;;;;;;9.78;84.72;94649.88;1683701;83;21085;-59
2021/09/13 01:51:08;;;;;;;18.98;11.05;;;;;;;9.75;84.38;94649.38;1698657;83;21153;-59
2021/09/13 01:53:35;;;;;;;20.20;10.63;;;;;;;9.71;84.32;94651.47;1680562;83;21014;-60
2021/09/13 01:56:05;;;;;;;18.55;10.72;;;;;;;9.71;84.14;94650.88;1670425;83;21085;-60
2021/09/13 01:58:31;;;;;;;18.02;12.82;;;;;;;9.71;84.13;94652.84;1689885;83;21042;-60
2021/09/13 02:00:58;;;;;;;20.85;11.73;;;;;;;9.69;84.27;94651.16;1698474;83;21111;-60
2021/09/13 02:03:25;;;;;;;18.82;11.80;;;;;;;9.65;84.29;94653.26;1712505;83;21141;-60
2021/09/13 02:05:54;;;;;;;28.52;13.20;;;;;;;9.57;84.44;94653.31;1694897;83;20965;-59
2021/09/13 02:08:22;;;;;;;22.22;12.95;;;;;;;9.49;84.67;94646.53;1687657;82;20982;-60
2021/09/13 02:10:50;;;;;;;20.02;13.05;;;;;;;9.41;84.91;94647.36;1686031;83;21057;-60
2021/09/13 02:13:16;;;;;;;23.65;14.53;;;;;;;9.38;85.05;94655.70;1677604;83;21057;-60
2021/09/13 02:15:43;;;;;;;19.12;14.73;;;;;;;9.32;85.22;94650.62;1707686;83;21186;-60
2021/09/13 02:18:11;;;;;;;18.30;13.55;;;;;;;9.33;85.48;94653.52;1708490;83;21120;-59
2021/09/13 02:20:41;;;;;;;22.82;13.38;;;;;;;9.36;85.36;94644.40;1677460;83;21081;-60
2021/09/13 02:23:09;;;;;;;17.77;12.03;;;;;;;9.39;85.13;94656.65;1677871;83;20992;-59
2021/09/13 02:25:37;;;;;;;19.73;13.03;;;;;;;9.39;85.00;94649.78;1688451;83;21047;-59
2021/09/13 02:28:05;;;;;;;19.00;13.25;;;;;;;9.37;85.05;94652.20;1697857;83;21684;-60
2021/09/13 02:30:32;;;;;;;16.75;12.85;;;;;;;9.38;84.95;94644.13;1669549;85;21066;-60
2021/09/13 02:32:59;;;;;;;25.55;12.93;;;;;;;9.39;84.95;94642.92;1681795;84;20993;-59
2021/09/13 02:35:28;;;;;;;20.10;12.18;;;;;;;9.39;85.06;94648.41;1690523;83;20991;-59
2021/09/13 02:37:56;;;;;;;19.92;12.43;;;;;;;9.40;85.05;94651.94;1673862;84;21544;-60
2021/09/13 02:40:23;;;;;;;18.57;12.50;;;;;;;9.42;85.08;94641.28;1688116;84;21168;-60
2021/09/13 02:42:50;;;;;;;16.55;11.88;;;;;;;9.45;85.00;94645.27;1685755;83;21058;-60
2021/09/13 02:45:19;;;;;;;21.30;12.80;;;;;;;9.45;84.50;94645.88;1690079;83;21023;-60
2021/09/13 02:47:46;;;;;;;19.02;12.28;;;;;;;9.38;84.21;94651.59;1671559;85;21581;-61
2021/09/13 02:50:14;;;;;;;15.90;12.58;;;;;;;9.33;84.34;94651.56;1689024;83;21600;-60
2021/09/13 02:52:40;;;;;;;22.20;11.90;;;;;;;9.36;84.53;94647.92;1683981;83;21147;-58
2021/09/13 02:55:09;;;;;;;20.90;12.05;;;;;;;9.42;84.34;94648.14;1686084;83;21023;-59
2021/09/13 02:57:35;;;;;;;18.60;12.23;;;;;;;9.42;84.09;94649.52;1680188;83;21533;-60
2021/09/13 03:00:04;;;;;;;22.82;13.45;;;;;;;9.42;84.15;94648.14;1696690;83;21087;-60
2021/09/13 03:02:33;;;;;;;23.52;12.60;;;;;;;9.38;84.30;94647.47;1708650;83;21079;-60
2021/09/13 03:05:00;;;;;;;30.37;12.45;;;;;;;9.34;84.63;94653.09;1698728;83;21173;-60
2021/09/13 03:07:28;;;;;;;43.68;14.70;;;;;;;9.33;84.75;94656.27;1690978;83;21157;-60
2021/09/13 03:09:55;;;;;;;45.65;15.45;;;;;;;9.28;84.68;94656.83;1710804;83;20972;-60
2021/09/13 03:12:24;;;;;;;33.63;13.78;;;;;;;9.25;84.63;94661.83;1688284;83;38004;-60
2021/09/13 03:14:51;;;;;;;27.30;12.82;;;;;;;9.16;84.55;94650.14;1696467;83;21084;-59
2021/09/13 03:17:17;;;;;;;37.98;12.73;;;;;;;9.12;84.88;94656.95;1687094;83;21187;-60
2021/09/13 03:19:46;;;;;;;41.40;14.03;;;;;;;9.08;85.07;94653.55;1675477;83;21021;-60
2021/09/13 03:22:13;;;;;;;28.32;14.93;;;;;;;9.12;85.04;94647.34;1669035;83;22117;-60
2021/09/13 03:24:40;;;;;;;27.48;13.65;;;;;;;9.09;85.11;94649.59;1669040;83;21066;-59
2021/09/13 03:27:07;;;;;;;24.82;12.10;;;;;;;9.07;85.41;94650.02;1692766;83;21120;-59
2021/09/13 03:29:34;;;;;;;25.43;12.10;;;;;;;9.05;85.65;94651.69;1676859;83;21113;-60
2021/09/13 03:32:02;;;;;;;22.17;12.73;;;;;;;9.01;85.68;94649.63;1687250;83;21063;-61
2021/09/13 03:34:29;;;;;;;25.80;13.15;;;;;;;9.00;85.73;94654.38;1712628;83;21146;-59
2021/09/13 03:37:02;;;;;;;28.47;13.10;;;;;;;9.01;85.88;94655.91;1687946;83;21103;-60
2021/09/13 03:39:31;;;;;;;35.48;12.95;;;;;;;9.04;85.72;94658.39;1691224;83;21053;-60
2021/09/13 03:42:00;;;;;;;27.22;14.60;;;;;;;9.01;85.61;94651.01;1680777;83;21132;-60
2021/09/13 03:44:27;;;;;;;38.00;15.38;;;;;;;9.01;85.52;94652.38;1698782;83;21069;-60
2021/09/13 03:46:56;;;;;;;30.02;14.35;;;;;;;8.97;85.61;94647.61;1705613;83;21098;-60
2021/09/13 03:49:25;;;;;;;30.17;14.63;;;;;;;8.97;86.11;94653.09;1689435;83;21188;-60
2021/09/13 03:51:53;;;;;;;30.40;15.10;;;;;;;8.99;86.11;94650.68;1697504;83;20931;-60
2021/09/13 03:54:19;;;;;;;30.10;14.75;;;;;;;8.97;86.05;94661.33;1680642;83;21155;-60
2021/09/13 03:56:47;;;;;;;30.48;14.73;;;;;;;8.96;86.11;94658.42;1690885;83;21114;-59
2021/09/13 03:59:16;;;;;;;24.85;15.32;;;;;;;8.94;85.96;94662.20;1694847;83;21019;-59
2021/09/13 04:01:43;;;;;;;24.12;14.43;;;;;;;8.91;86.03;94656.98;1702155;83;21111;-59
2021/09/13 04:04:10;;;;;;;30.95;13.80;;;;;;;8.95;85.99;94667.86;1683951;83;21020;-59
2021/09/13 04:06:43;;;;;;;30.57;15.83;;;;;;;8.95;86.10;94663.74;1684773;83;21172;-58
2021/09/13 04:11:55;;;;;;;55.45;17.65;;;;;;;9.02;86.21;94669.00;1692326;83;21052;-60
2021/09/13 04:14:28;;;;;;;40.08;17.65;;;;;;;9.01;86.21;94667.47;1681145;83;21533;-58
2021/09/13 04:16:57;;;;;;;36.20;16.02;;;;;;;9.02;86.17;94664.89;1694820;83;21027;-59
2021/09/13 04:19:28;;;;;;;25.02;14.05;;;;;;;9.02;86.32;94659.41;1686704;83;21060;-60
2021/09/13 04:22:05;;;;;;;31.42;16.95;;;;;;;9.05;86.48;94669.52;1682981;84;21215;-59
2021/09/13 04:24:34;;;;;;;29.87;17.12;;;;;;;9.00;86.59;94666.72;1680206;84;21561;-59
2021/09/13 04:27:05;;;;;;;33.25;16.55;;;;;;;8.99;86.98;94674.00;1698496;83;20987;-59
2021/09/13 04:29:43;;;;;;;42.80;16.42;;;;;;;8.99;86.93;94675.38;1666596;85;21137;-59
2021/09/13 04:32:23;;;;;;;34.20;18.10;;;;;;;8.97;86.99;94672.30;1683067;83;21167;-59
2021/09/13 04:35:06;;;;;;;62.13;22.75;;;;;;;8.96;87.29;94672.92;1685455;83;21462;-60
2021/09/13 04:37:32;;;;;;;45.35;20.32;;;;;;;8.98;87.49;94673.25;1688611;83;21533;-61
2021/09/13 04:40:13;;;;;;;38.20;20.35;;;;;;;8.95;87.55;94671.98;1677151;84;21015;-59
2021/09/13 04:42:58;;;;;;;47.88;21.45;;;;;;;8.98;87.81;94679.33;1704549;83;20946;-60
2021/09/13 04:45:29;;;;;;;59.77;24.18;;;;;;;9.06;88.02;94680.66;1691184;83;21179;-59
2021/09/13 04:48:14;;;;;;;55.92;23.92;;;;;;;9.16;87.76;94678.18;1683759;83;21062;-60
2021/09/13 04:50:45;;;;;;;46.55;23.67;;;;;;;9.19;87.64;94674.55;1672896;83;21019;-60
2021/09/13 04:53:17;;;;;;;35.80;20.90;;;;;;;9.26;87.81;94678.46;1697308;83;21452;-60
2021/09/13 04:55:46;;;;;;;43.83;20.05;;;;;;;9.37;87.70;94681.63;1690505;83;21065;-60
2021/09/13 04:58:16;;;;;;;52.33;24.45;;;;;;;9.48;87.28;94683.44;1699189;83;21978;-58
2021/09/13 05:00:42;;;;;;;46.20;25.77;;;;;;;9.52;86.93;94680.75;1678166;83;20973;-60
2021/09/13 05:03:10;;;;;;;44.60;24.57;;;;;;;9.54;86.78;94684.41;1676805;83;21175;-59
2021/09/13 05:05:38;;;;;;;43.95;25.02;;;;;;;9.54;86.55;94677.55;1687223;83;21041;-60
2021/09/13 05:08:06;;;;;;;50.12;24.82;;;;;;;9.53;86.42;94675.42;1715969;82;21058;-59
2021/09/13 05:10:33;;;;;;;47.15;25.37;;;;;;;9.53;86.30;94679.54;1698967;83;22105;-60
2021/09/13 05:13:02;;;;;;;41.95;25.40;;;;;;;9.54;86.29;94678.92;1687466;83;21008;-60
2021/09/13 05:15:30;;;;;;;62.00;28.85;;;;;;;9.57;86.24;94676.66;1669433;83;21093;-59
2021/09/13 05:17:59;;;;;;;69.12;32.80;;;;;;;9.62;86.39;94678.87;1679177;83;21088;-59
2021/09/13 05:20:26;;;;;;;60.28;28.65;;;;;;;9.68;86.33;94674.34;1686556;84;21004;-59
2021/09/13 05:22:54;;;;;;;78.75;28.32;;;;;;;9.74;86.33;94676.09;1682808;83;21240;-60
2021/09/13 05:25:21;;;;;;;64.05;25.35;;;;;;;9.84;86.47;94675.57;1692052;83;21059;-60
2021/09/13 05:27:48;;;;;;;50.40;24.80;;;;;;;9.94;86.37;94668.93;1707092;83;21337;-60
2021/09/13 05:30:15;;;;;;;51.95;24.43;;;;;;;10.01;86.32;94680.48;1688769;83;21511;-61
2021/09/13 05:32:42;;;;;;;43.17;24.82;;;;;;;10.08;86.21;94680.26;1702246;83;21198;-60
2021/09/13 05:35:11;;;;;;;44.35;23.20;;;;;;;10.17;86.21;94672.08;1689868;83;21171;-59
2021/09/13 05:37:37;;;;;;;37.00;20.15;;;;;;;10.30;85.76;94670.64;1704322;83;21093;-59
2021/09/13 05:40:06;;;;;;;29.98;19.92;;;;;;;10.37;85.54;94679.41;1688145;83;21186;-60
2021/09/13 05:42:34;;;;;;;32.48;19.67;;;;;;;10.45;85.44;94678.55;1686680;83;21020;-60
2021/09/13 05:45:04;;;;;;;32.28;19.42;;;;;;;10.52;85.30;94678.31;1709645;83;21007;-61
2021/09/13 05:47:32;;;;;;;43.28;23.87;;;;;;;10.56;85.19;94680.32;1669995;83;21147;-58
2021/09/13 05:50:01;;;;;;;31.62;20.08;;;;;;;10.64;85.29;94681.58;1695664;82;21104;-60
2021/09/13 05:52:28;;;;;;;61.00;19.92;;;;;;;10.76;85.04;94675.41;1664371;84;21061;-61
2021/09/13 05:54:55;;;;;;;33.05;16.60;;;;;;;10.86;84.97;94683.11;1643884;85;21724;-61
2021/09/13 05:57:22;;;;;;;28.02;14.65;;;;;;;10.97;84.93;94676.61;1633086;85;21099;-59
2021/09/13 05:59:49;;;;;;;29.60;12.80;;;;;;;11.11;84.71;94672.69;1624922;84;21170;-59
2021/09/13 06:02:17;;;;;;;32.23;13.50;;;;;;;11.25;84.21;94670.77;1637695;85;21058;-61
2021/09/13 06:04:49;;;;;;;28.30;14.78;;;;;;;11.37;83.60;94675.39;1638324;85;21098;-59
2021/09/13 06:07:19;;;;;;;31.77;15.00;;;;;;;11.47;83.35;94672.84;1642637;83;21715;-59
2021/09/13 06:09:47;;;;;;;30.68;15.23;;;;;;;11.56;83.06;94670.12;1702711;82;21106;-59
2021/09/13 06:12:14;;;;;;;29.60;15.28;;;;;;;11.64;82.94;94671.98;1692218;82;21185;-62
2021/09/13 06:14:45;;;;;;;67.97;17.50;;;;;;;11.72;82.79;94679.52;1611631;86;21031;-64
2021/09/13 06:17:12;;;;;;;28.50;12.82;;;;;;;11.82;82.50;94671.44;1622484;87;21134;-58
2021/09/13 06:19:43;;;;;;;74.40;16.25;;;;;;;11.94;82.11;94667.77;1615298;87;21083;-59
2021/09/13 06:22:10;;;;;;;29.30;13.32;;;;;;;12.08;81.83;94672.69;1582697;88;21086;-66
2021/09/13 06:24:39;;;;;;;28.47;13.85;;;;;;;12.24;81.48;94665.50;1621665;87;21180;-64
2021/09/13 06:27:06;;;;;;;25.92;11.70;;;;;;;12.39;80.77;94667.02;1612411;87;20981;-62
2021/09/13 06:29:34;;;;;;;97.50;16.67;;;;;;;12.48;80.38;94664.28;1610438;88;21076;-59
2021/09/13 06:32:05;;;;;;;25.27;12.43;;;;;;;12.60;80.05;94662.73;1601720;87;21125;-60
2021/09/13 06:34:32;;;;;;;30.40;12.20;;;;;;;12.75;79.62;94662.25;1591039;88;21139;-60
2021/09/13 06:37:01;;;;;;;17.92;9.80;;;;;;;12.93;79.15;94659.48;1615639;86;21125;-59
2021/09/13 06:39:28;;;;;;;23.02;10.35;;;;;;;13.09;78.21;94666.05;1609254;86;21257;-67
2021/09/13 06:41:56;;;;;;;17.07;10.43;;;;;;;13.22;77.53;94658.31;1621318;86;21576;-65
2021/09/13 06:44:29;;;;;;;21.48;11.12;;;;;;;13.38;76.98;94659.33;1613650;88;21115;-61
2021/09/13 06:47:06;;;;;;;20.12;12.35;;;;;;;13.52;76.34;94656.67;1623713;87;22241;-61
2021/09/13 06:49:34;;;;;;;18.37;9.05;;;;;;;13.67;76.07;94663.66;1627220;86;21162;-61
2021/09/13 06:52:04;;;;;;;21.82;11.00;;;;;;;13.84;75.47;94649.59;1614374;86;20948;-61
2021/09/13 06:54:31;;;;;;;30.92;11.90;;;;;;;13.96;74.81;94654.13;1610359;86;21043;-61
2021/09/13 06:57:00;;;;;;;17.77;11.22;;;;;;;14.08;74.60;94650.34;1614953;87;21104;-62
2021/09/13 06:59:27;;;;;;;18.25;10.65;;;;;;;14.19;74.15;94647.84;1608146;87;21045;-63
2021/09/13 07:01:53;;;;;;;17.32;11.33;;;;;;;14.28;73.97;94650.53;1608864;86;21810;-63
2021/09/13 07:04:22;;;;;;;19.52;11.03;;;;;;;14.36;73.80;94646.18;1628892;86;21230;-59
2021/09/13 07:06:51;;;;;;;20.68;10.65;;;;;;;14.47;73.70;94656.21;1593355;88;21515;-61
2021/09/13 07:09:17;;;;;;;17.73;9.93;;;;;;;14.63;73.27;94652.25;1611134;87;21074;-61
2021/09/13 07:11:47;;;;;;;19.77;11.75;;;;;;;14.78;72.68;94651.66;1604367;87;21054;-60
2021/09/13 07:14:20;;;;;;;16.75;11.45;;;;;;;14.95;72.25;94654.86;1618362;87;21155;-63
2021/09/13 07:16:47;;;;;;;24.50;12.13;;;;;;;15.09;71.73;94648.56;1604089;87;21236;-63
2021/09/13 07:19:15;;;;;;;24.52;11.10;;;;;;;15.26;71.20;94652.38;1613404;87;21016;-60
2021/09/13 07:21:42;;;;;;;17.62;10.40;;;;;;;15.38;70.55;94653.34;1620522;86;21091;-62
2021/09/13 07:24:09;;;;;;;29.98;11.97;;;;;;;15.49;70.11;94648.73;1611175;88;21509;-60
2021/09/13 07:26:35;;;;;;;25.62;11.55;;;;;;;15.58;69.67;94647.86;1616649;86;21961;-62
2021/09/13 07:29:03;;;;;;;28.07;11.00;;;;;;;15.67;69.19;94650.50;1610044;87;21038;-60
2021/09/13 07:31:31;;;;;;;33.33;10.68;;;;;;;15.77;68.52;94654.06;1597770;87;21569;-64
2021/09/13 07:33:58;;;;;;;42.67;12.23;;;;;;;15.90;68.23;94646.19;1625205;87;21308;-62
2021/09/13 07:36:25;;;;;;;14.20;9.10;;;;;;;16.06;68.13;94641.48;1602029;87;21150;-61
2021/09/13 07:38:51;;;;;;;21.48;10.95;;;;;;;16.21;67.48;94643.58;1618274;87;21145;-60
2021/09/13 07:41:18;;;;;;;24.18;10.15;;;;;;;16.33;66.76;94644.62;1620302;86;21487;-61
2021/09/13 07:43:45;;;;;;;22.75;10.60;;;;;;;16.45;66.60;94646.93;1624769;88;21069;-60
2021/09/13 07:46:12;;;;;;;27.22;11.22;;;;;;;16.59;66.48;94641.92;1607589;87;21080;-61
2021/09/13 07:48:39;;;;;;;18.75;9.95;;;;;;;16.69;65.79;94644.70;1575801;88;21124;-59
2021/09/13 07:51:06;;;;;;;26.95;10.08;;;;;;;16.78;65.58;94640.36;1586845;88;21199;-61
2021/09/13 07:53:33;;;;;;;18.67;10.25;;;;;;;16.89;65.33;94637.71;1575420;89;21348;-67
2021/09/13 07:56:01;;;;;;;19.62;11.12;;;;;;;16.96;64.73;94638.66;1555589;90;21065;-65
2021/09/13 07:58:28;;;;;;;23.38;11.08;;;;;;;17.04;64.36;94636.34;1560446;90;21030;-57
2021/09/13 08:00:55;;;;;;;20.77;10.95;;;;;;;17.12;64.14;94634.63;1568688;90;20996;-65
2021/09/13 08:03:22;;;;;;;23.87;11.03;;;;;;;17.23;63.69;94625.01;1570473;88;21130;-59
2021/09/13 08:05:49;;;;;;;22.15;10.25;;;;;;;17.35;63.51;94628.06;1572377;89;21249;-66
2021/09/13 08:08:15;;;;;;;21.77;10.32;;;;;;;17.48;63.06;94627.00;1564871;89;21065;-59
2021/09/13 08:10:43;;;;;;;23.55;10.90;;;;;;;17.58;62.81;94621.40;1562139;89;21122;-59
2021/09/13 08:13:10;;;;;;;24.43;9.83;;;;;;;17.69;62.30;94623.50;1563555;90;22548;-64
2021/09/13 08:15:36;;;;;;;23.50;11.45;;;;;;;17.82;61.77;94626.63;1556565;90;21832;-61
2021/09/13 08:18:05;;;;;;;26.00;11.25;;;;;;;17.96;61.33;94622.89;1555666;90;21157;-58
2021/09/13 08:20:31;;;;;;;21.90;10.78;;;;;;;18.09;60.94;94621.84;1587580;88;21122;-57
2021/09/13 08:22:59;;;;;;;16.55;10.78;;;;;;;18.22;59.89;94619.51;1598379;87;21089;-58
2021/09/13 08:25:25;;;;;;;24.60;10.00;;;;;;;18.34;59.93;94618.34;1602178;87;21628;-59
2021/09/13 08:27:57;;;;;;;29.63;12.43;;;;;;;18.48;59.14;94615.97;1610191;86;21869;-58
2021/09/13 08:30:26;;;;;;;23.83;9.38;;;;;;;18.62;58.95;94619.19;1603526;87;21069;-60
2021/09/13 08:32:53;;;;;;;25.82;10.75;;;;;;;18.78;58.13;94617.09;1603502;87;21432;-60
2021/09/13 08:35:20;;;;;;;17.90;10.65;;;;;;;18.93;57.73;94614.06;1579573;89;21077;-59
2021/09/13 08:37:47;;;;;;;18.95;10.75;;;;;;;19.05;57.51;94613.58;1603562;87;21104;-57
2021/09/13 08:40:14;;;;;;;21.42;11.50;;;;;;;19.16;57.16;94613.63;1623225;86;21160;-59
2021/09/13 08:42:48;;;;;;;16.75;12.50;;;;;;;19.31;56.62;94614.16;1619554;86;21084;-58
2021/09/13 08:45:25;;;;;;;21.42;12.78;;;;;;;19.44;56.62;94607.45;1605626;86;21039;-60
2021/09/13 08:53:19;;;;;;;17.73;10.58;;;;;;;19.92;57.43;94602.30;1597749;87;21243;-59
2021/09/13 08:55:45;;;;;;;27.05;11.80;;;;;;;20.10;57.55;94605.97;1614868;86;21211;-59
2021/09/13 08:58:15;;;;;;;21.93;11.68;;;;;;;20.24;57.69;94596.54;1602207;86;21692;-59
2021/09/13 09:00:44;;;;;;;15.63;10.38;;;;;;;20.42;56.85;94595.96;1620687;87;21137;-57
2021/09/13 09:03:11;;;;;;;20.43;11.30;;;;;;;20.57;57.08;94596.41;1591329;87;21138;-60
2021/09/13 09:05:46;;;;;;;19.17;12.13;;;;;;;20.75;56.71;94597.21;1618287;87;21270;-58
2021/09/13 09:08:27;;;;;;;24.45;14.50;;;;;;;20.93;56.60;94586.84;1620756;87;21576;-56
2021/09/13 09:11:04;;;;;;;25.48;11.70;;;;;;;21.12;56.58;94591.28;1600094;86;21792;-59
2021/09/13 09:13:42;;;;;;;21.95;14.55;;;;;;;21.32;56.41;94584.53;1599662;88;21199;-59
2021/09/13 09:16:13;;;;;;;30.02;12.47;;;;;;;21.49;55.92;94576.11;1601558;88;21064;-60
2021/09/13 09:18:48;;;;;;;22.80;12.37;;;;;;;21.68;54.36;94577.64;1582278;88;21152;-59
2021/09/13 09:21:29;;;;;;;19.20;12.13;;;;;;;21.86;53.05;94576.97;1573693;89;21620;-62
2021/09/13 09:24:04;;;;;;;20.23;12.33;;;;;;;22.05;52.29;94572.30;1542407;91;21097;-62
2021/09/13 09:26:31;;;;;;;19.65;10.88;;;;;;;22.27;51.91;94570.64;1609838;88;21320;-64
2021/09/13 09:29:00;;;;;;;15.15;9.98;;;;;;;22.56;51.14;94575.44;1597364;87;21080;-60
2021/09/13 09:31:42;;;;;;;20.68;10.85;;;;;;;22.81;49.70;94565.66;1608552;87;21853;-58
2021/09/13 09:34:17;;;;;;;16.50;10.68;;;;;;;23.04;49.63;94565.45;1568993;87;21160;-60
2021/09/13 09:37:08;;;;;;;17.45;10.00;;;;;;;23.29;48.72;94560.52;1596440;87;21263;-61
2021/09/13 09:39:53;;;;;;;15.10;9.58;;;;;;;23.53;48.55;94571.64;1616704;86;21069;-62
2021/09/13 09:42:31;;;;;;;16.90;9.63;;;;;;;23.78;47.38;94561.09;1624812;87;21065;-59
2021/09/13 09:45:00;;;;;;;15.25;11.12;;;;;;;24.02;46.15;94562.37;1615542;87;21147;-61
2021/09/13 09:47:27;;;;;;;14.10;10.18;;;;;;;24.24;45.27;94563.35;1558996;88;21561;-61
2021/09/13 09:49:57;;;;;;;17.70;11.38;;;;;;;24.42;45.35;94562.48;1561425;90;22038;-57
2021/09/13 09:52:39;;;;;;;21.82;10.68;;;;;;;24.67;45.33;94563.78;1568541;90;21100;-59
2021/09/13 09:55:19;;;;;;;16.77;10.47;;;;;;;25.01;44.97;94559.72;1555675;90;21147;-59
2021/09/13 09:58:05;;;;;;;14.75;10.25;;;;;;;25.42;45.31;94554.82;1614104;87;21154;-60
2021/09/13 10:00:32;;;;;;;14.00;9.33;;;;;;;25.82;44.13;94552.67;1594223;88;21147;-60
2021/09/13 10:02:59;;;;;;;15.58;10.53;;;;;;;26.28;43.14;94543.28;1611346;86;21061;-60
2021/09/13 10:05:28;;;;;;;17.52;11.40;;;;;;;26.70;42.00;94545.41;1615021;86;21085;-59
2021/09/13 10:07:55;;;;;;;19.07;11.45;;;;;;;27.16;40.42;94544.96;1615197;87;21083;-60
2021/09/13 10:10:30;;;;;;;15.43;9.15;;;;;;;27.61;38.67;94544.41;1614804;86;21222;-63
2021/09/13 10:13:00;;;;;;;14.60;8.28;;;;;;;27.92;37.71;94544.56;1607757;88;21082;-61
2021/09/13 10:15:28;;;;;;;11.50;9.00;;;;;;;28.26;36.78;94549.17;1612957;87;21278;-62
2021/09/13 10:17:55;;;;;;;14.20;9.55;;;;;;;28.61;35.91;94543.95;1579087;87;22044;-61
2021/09/13 10:20:23;;;;;;;12.05;8.58;;;;;;;28.96;35.29;94542.92;1544012;91;21099;-60
2021/09/13 10:22:52;;;;;;;11.35;8.48;;;;;;;29.37;35.65;94547.38;1552123;90;21197;-61
2021/09/13 10:25:18;;;;;;;16.55;9.25;;;;;;;29.80;33.85;94537.66;1529481;90;21078;-60
2021/09/13 10:27:47;;;;;;;13.62;7.55;;;;;;;30.08;34.44;94535.95;1561257;90;21101;-64
2021/09/13 10:30:22;;;;;;;16.90;9.50;;;;;;;30.40;33.37;94536.52;1562515;90;21092;-59
2021/09/13 10:32:52;;;;;;;17.60;8.28;;;;;;;30.62;32.79;94539.17;1564830;90;21196;-63
2021/09/13 10:35:21;;;;;;;11.70;8.68;;;;;;;30.92;32.35;94529.55;1560687;90;21573;-60
2021/09/13 10:37:52;;;;;;;16.90;8.10;;;;;;;31.21;32.60;94524.19;1532183;91;21137;-62
2021/09/13 10:40:25;;;;;;;14.07;8.33;;;;;;;31.54;31.83;94526.11;1569547;89;21693;-61
2021/09/13 10:42:57;;;;;;;14.75;7.70;;;;;;;31.85;31.55;94523.70;1568312;89;21070;-66
2021/09/13 10:45:41;;;;;;;11.35;8.18;;;;;;;32.06;31.06;94516.81;1567219;91;21069;-64
2021/09/13 10:48:17;;;;;;;22.05;8.43;;;;;;;32.28;30.70;94518.55;1565128;90;21172;-67
2021/09/13 10:50:57;;;;;;;12.53;7.83;;;;;;;32.50;30.13;94515.98;1566146;91;21062;-65
2021/09/13 10:53:29;;;;;;;15.30;8.30;;;;;;;32.67;29.71;94512.34;1569153;89;21086;-64
2021/09/13 10:56:06;;;;;;;15.08;8.75;;;;;;;32.88;29.51;94514.62;1562626;90;21490;-62
2021/09/13 10:58:50;;;;;;;10.75;8.23;;;;;;;33.22;28.71;94505.78;1562039;91;21100;-62
2021/09/13 11:01:26;;;;;;;12.10;8.05;;;;;;;33.54;27.95;94512.41;1554163;90;21235;-65
2021/09/13 11:04:05;;;;;;;13.48;7.97;;;;;;;33.76;27.86;94507.66;1561530;89;21293;-62
2021/09/13 11:06:38;;;;;;;11.08;7.10;;;;;;;33.97;28.21;94499.89;1560508;89;21149;-59
2021/09/13 11:09:10;;;;;;;8.18;6.85;;;;;;;34.21;27.80;94497.34;1599440;88;21234;-70
2021/09/13 11:11:46;;;;;;;15.80;8.03;;;;;;;34.51;25.46;94487.97;1609439;86;20999;-62
2021/09/13 11:14:17;;;;;;;17.00;7.60;;;;;;;34.45;25.88;94491.86;1611173;87;21324;-61
2021/09/13 11:16:47;;;;;;;11.85;8.08;;;;;;;34.46;26.50;94487.64;1604672;87;21105;-62
2021/09/13 11:19:17;;;;;;;10.43;7.40;;;;;;;34.50;25.85;94489.33;1604719;87;21149;-63
2021/09/13 11:21:56;;;;;;;13.98;7.95;;;;;;;34.65;25.72;94488.94;1601351;87;21369;-60
2021/09/13 11:24:29;;;;;;;9.65;7.00;;;;;;;34.84;25.41;94491.68;1588730;87;21092;-60
2021/09/13 11:27:02;;;;;;;10.18;7.35;;;;;;;35.08;25.11;94491.12;1597093;88;21132;-62
2021/09/13 11:29:36;;;;;;;11.78;7.28;;;;;;;35.16;25.41;94488.80;1602288;87;21648;-60
2021/09/13 11:32:09;;;;;;;11.00;6.80;;;;;;;35.25;24.25;94482.99;1616088;87;21085;-59
2021/09/13 11:34:45;;;;;;;10.43;7.58;;;;;;;35.36;24.08;94478.00;1616618;87;21065;-64
2021/09/13 11:37:30;;;;;;;12.53;8.13;;;;;;;35.65;23.97;94477.73;1615502;87;21156;-61
2021/09/13 11:40:00;;;;;;;14.13;7.80;;;;;;;35.91;24.12;94472.97;1620173;86;21139;-60